sensor_id;sensor_type;location;lat;lon;timestamp;P1;durP1;ratioP1;P2;durP2;ratioP2
22929;SDS011;11630;42.660;23.292;2022-07-10T00:01:52;13.23;;;12.03;;
22929;SDS011;11630;42.660;23.292;2022-07-10T00:04:23;13.23;;;11.70;;
22929;SDS011;11630;42.660;23.292;2022-07-10T00:06:54;13.43;;;12.13;;
22929;SDS011;11630;42.660;23.292;2022-07-10T00:09:25;14.53;;;13.07;;
22929;SDS011;11630;42.660;23.292;2022-07-10T00:11:56;15.57;;;12.63;;
22929;SDS011;11630;42.660;23.292;2022-07-10T00:14:26;12.43;;;11.33;;
22929;SDS011;11630;42.660;23.292;2022-07-10T00:16:57;14.97;;;11.93;;
22929;SDS011;11630;42.660;23.292;2022-07-10T00:19:28;12.70;;;11.43;;
22929;SDS011;11630;42.660;23.292;2022-07-10T00:21:59;13.07;;;11.77;;
22929;SDS011;11630;42.660;23.292;2022-07-10T00:24:30;14.40;;;12.97;;
22929;SDS011;11630;42.660;23.292;2022-07-10T00:27:01;13.20;;;11.33;;
22929;SDS011;11630;42.660;23.292;2022-07-10T00:29:32;21.60;;;12.33;;
22929;SDS011;11630;42.660;23.292;2022-07-10T00:32:04;13.87;;;11.73;;
22929;SDS011;11630;42.660;23.292;2022-07-10T00:34:34;15.37;;;13.20;;
22929;SDS011;11630;42.660;23.292;2022-07-10T00:37:05;14.67;;;13.30;;
22929;SDS011;11630;42.660;23.292;2022-07-10T00:39:37;13.70;;;12.43;;
22929;SDS011;11630;42.660;23.292;2022-07-10T00:42:08;12.87;;;11.57;;
22929;SDS011;11630;42.660;23.292;2022-07-10T00:44:41;14.97;;;12.93;;
22929;SDS011;11630;42.660;23.292;2022-07-10T00:47:12;13.77;;;12.37;;
22929;SDS011;11630;42.660;23.292;2022-07-10T00:49:43;18.73;;;13.30;;
22929;SDS011;11630;42.660;23.292;2022-07-10T00:52:16;13.93;;;11.97;;
22929;SDS011;11630;42.660;23.292;2022-07-10T00:54:48;12.67;;;11.47;;
22929;SDS011;11630;42.660;23.292;2022-07-10T00:57:19;13.10;;;11.90;;
22929;SDS011;11630;42.660;23.292;2022-07-10T00:59:51;13.57;;;11.83;;
22929;SDS011;11630;42.660;23.292;2022-07-10T01:02:23;13.30;;;12.00;;
22929;SDS011;11630;42.660;23.292;2022-07-10T01:04:53;14.53;;;12.30;;
22929;SDS011;11630;42.660;23.292;2022-07-10T01:07:26;13.30;;;12.00;;
22929;SDS011;11630;42.660;23.292;2022-07-10T01:09:57;14.03;;;12.47;;
22929;SDS011;11630;42.660;23.292;2022-07-10T01:12:27;14.77;;;13.27;;
22929;SDS011;11630;42.660;23.292;2022-07-10T01:14:58;13.03;;;11.73;;
22929;SDS011;11630;42.660;23.292;2022-07-10T01:17:29;15.77;;;12.00;;
22929;SDS011;11630;42.660;23.292;2022-07-10T01:20:03;13.50;;;12.20;;
22929;SDS011;11630;42.660;23.292;2022-07-10T01:22:37;15.93;;;12.27;;
22929;SDS011;11630;42.660;23.292;2022-07-10T01:25:08;13.67;;;11.27;;
22929;SDS011;11630;42.660;23.292;2022-07-10T01:27:39;12.37;;;11.17;;
22929;SDS011;11630;42.660;23.292;2022-07-10T01:30:10;13.07;;;11.77;;
22929;SDS011;11630;42.660;23.292;2022-07-10T01:32:41;14.13;;;12.77;;
22929;SDS011;11630;42.660;23.292;2022-07-10T01:35:12;13.03;;;11.63;;
22929;SDS011;11630;42.660;23.292;2022-07-10T01:37:43;12.47;;;11.27;;
22929;SDS011;11630;42.660;23.292;2022-07-10T01:40:13;12.97;;;11.63;;
22929;SDS011;11630;42.660;23.292;2022-07-10T01:42:45;12.93;;;11.27;;
22929;SDS011;11630;42.660;23.292;2022-07-10T01:45:16;12.90;;;11.37;;
22929;SDS011;11630;42.660;23.292;2022-07-10T01:47:47;14.00;;;11.07;;
22929;SDS011;11630;42.660;23.292;2022-07-10T01:50:18;13.00;;;10.83;;
22929;SDS011;11630;42.660;23.292;2022-07-10T01:52:49;11.20;;;10.20;;
22929;SDS011;11630;42.660;23.292;2022-07-10T01:55:20;14.93;;;10.63;;
22929;SDS011;11630;42.660;23.292;2022-07-10T01:57:51;13.17;;;10.80;;
22929;SDS011;11630;42.660;23.292;2022-07-10T02:00:27;12.53;;;11.00;;
22929;SDS011;11630;42.660;23.292;2022-07-10T02:02:58;13.90;;;11.73;;
22929;SDS011;11630;42.660;23.292;2022-07-10T02:05:45;12.10;;;10.97;;
22929;SDS011;11630;42.660;23.292;2022-07-10T02:08:16;12.00;;;10.80;;
22929;SDS011;11630;42.660;23.292;2022-07-10T02:10:47;13.43;;;11.27;;
22929;SDS011;11630;42.660;23.292;2022-07-10T02:13:17;16.13;;;11.23;;
22929;SDS011;11630;42.660;23.292;2022-07-10T02:15:49;13.00;;;11.33;;
22929;SDS011;11630;42.660;23.292;2022-07-10T02:18:20;15.87;;;11.77;;
22929;SDS011;11630;42.660;23.292;2022-07-10T02:20:51;14.60;;;11.10;;
22929;SDS011;11630;42.660;23.292;2022-07-10T02:23:22;12.90;;;10.60;;
22929;SDS011;11630;42.660;23.292;2022-07-10T02:25:53;13.23;;;11.67;;
22929;SDS011;11630;42.660;23.292;2022-07-10T02:28:24;11.77;;;10.57;;
22929;SDS011;11630;42.660;23.292;2022-07-10T02:30:55;14.10;;;10.53;;
22929;SDS011;11630;42.660;23.292;2022-07-10T02:33:25;16.07;;;11.70;;
22929;SDS011;11630;42.660;23.292;2022-07-10T02:35:58;13.23;;;11.83;;
22929;SDS011;11630;42.660;23.292;2022-07-10T02:38:28;13.10;;;11.70;;
22929;SDS011;11630;42.660;23.292;2022-07-10T02:40:59;12.77;;;11.20;;
22929;SDS011;11630;42.660;23.292;2022-07-10T02:43:30;15.43;;;10.73;;
22929;SDS011;11630;42.660;23.292;2022-07-10T02:46:00;11.07;;;10.03;;
22929;SDS011;11630;42.660;23.292;2022-07-10T02:48:31;13.23;;;10.77;;
22929;SDS011;11630;42.660;23.292;2022-07-10T02:51:02;10.83;;;9.73;;
22929;SDS011;11630;42.660;23.292;2022-07-10T02:53:32;11.70;;;10.20;;
22929;SDS011;11630;42.660;23.292;2022-07-10T02:56:03;12.03;;;10.83;;
22929;SDS011;11630;42.660;23.292;2022-07-10T02:58:34;18.77;;;10.73;;
22929;SDS011;11630;42.660;23.292;2022-07-10T03:01:06;14.90;;;11.07;;
22929;SDS011;11630;42.660;23.292;2022-07-10T03:03:37;10.27;;;9.43;;
22929;SDS011;11630;42.660;23.292;2022-07-10T03:06:07;10.53;;;9.50;;
22929;SDS011;11630;42.660;23.292;2022-07-10T03:08:38;11.80;;;10.63;;
22929;SDS011;11630;42.660;23.292;2022-07-10T03:11:08;12.40;;;11.07;;
22929;SDS011;11630;42.660;23.292;2022-07-10T03:13:40;11.50;;;10.30;;
22929;SDS011;11630;42.660;23.292;2022-07-10T03:16:11;14.00;;;10.00;;
22929;SDS011;11630;42.660;23.292;2022-07-10T03:18:41;13.27;;;11.63;;
22929;SDS011;11630;42.660;23.292;2022-07-10T03:21:11;11.63;;;10.43;;
22929;SDS011;11630;42.660;23.292;2022-07-10T03:23:42;11.50;;;10.30;;
22929;SDS011;11630;42.660;23.292;2022-07-10T03:26:13;12.53;;;11.33;;
22929;SDS011;11630;42.660;23.292;2022-07-10T03:28:44;11.57;;;10.47;;
22929;SDS011;11630;42.660;23.292;2022-07-10T03:31:15;13.10;;;11.33;;
22929;SDS011;11630;42.660;23.292;2022-07-10T03:33:46;13.60;;;12.03;;
22929;SDS011;11630;42.660;23.292;2022-07-10T03:36:16;12.50;;;10.67;;
22929;SDS011;11630;42.660;23.292;2022-07-10T03:38:47;16.77;;;10.87;;
22929;SDS011;11630;42.660;23.292;2022-07-10T03:41:17;17.07;;;11.00;;
22929;SDS011;11630;42.660;23.292;2022-07-10T03:43:48;10.73;;;9.83;;
22929;SDS011;11630;42.660;23.292;2022-07-10T03:46:19;14.17;;;10.97;;
22929;SDS011;11630;42.660;23.292;2022-07-10T03:48:50;10.97;;;9.97;;
22929;SDS011;11630;42.660;23.292;2022-07-10T03:51:21;11.97;;;10.77;;
22929;SDS011;11630;42.660;23.292;2022-07-10T03:53:52;11.27;;;10.00;;
22929;SDS011;11630;42.660;23.292;2022-07-10T03:56:23;12.37;;;10.20;;
22929;SDS011;11630;42.660;23.292;2022-07-10T03:59:09;20.17;;;15.17;;
22929;SDS011;11630;42.660;23.292;2022-07-10T04:01:40;16.17;;;11.47;;
22929;SDS011;11630;42.660;23.292;2022-07-10T04:04:11;13.80;;;11.73;;
22929;SDS011;11630;42.660;23.292;2022-07-10T04:06:42;17.53;;;15.13;;
22929;SDS011;11630;42.660;23.292;2022-07-10T04:09:13;12.10;;;10.90;;
22929;SDS011;11630;42.660;23.292;2022-07-10T04:11:44;14.23;;;10.80;;
22929;SDS011;11630;42.660;23.292;2022-07-10T04:14:14;11.83;;;10.63;;
22929;SDS011;11630;42.660;23.292;2022-07-10T04:16:45;12.77;;;10.60;;
22929;SDS011;11630;42.660;23.292;2022-07-10T04:19:16;11.00;;;9.13;;
22929;SDS011;11630;42.660;23.292;2022-07-10T04:21:47;11.70;;;9.40;;
22929;SDS011;11630;42.660;23.292;2022-07-10T04:24:17;13.67;;;10.43;;
22929;SDS011;11630;42.660;23.292;2022-07-10T04:26:48;10.80;;;9.70;;
22929;SDS011;11630;42.660;23.292;2022-07-10T04:29:19;13.77;;;10.07;;
22929;SDS011;11630;42.660;23.292;2022-07-10T04:31:50;13.67;;;10.57;;
22929;SDS011;11630;42.660;23.292;2022-07-10T04:34:23;14.00;;;9.03;;
22929;SDS011;11630;42.660;23.292;2022-07-10T04:36:56;12.63;;;9.40;;
22929;SDS011;11630;42.660;23.292;2022-07-10T04:39:27;9.87;;;8.87;;
22929;SDS011;11630;42.660;23.292;2022-07-10T04:41:57;12.90;;;8.37;;
22929;SDS011;11630;42.660;23.292;2022-07-10T04:44:28;8.47;;;7.67;;
22929;SDS011;11630;42.660;23.292;2022-07-10T04:47:00;14.83;;;9.47;;
22929;SDS011;11630;42.660;23.292;2022-07-10T04:49:31;10.10;;;9.00;;
22929;SDS011;11630;42.660;23.292;2022-07-10T04:52:02;9.73;;;8.77;;
22929;SDS011;11630;42.660;23.292;2022-07-10T04:54:34;9.83;;;8.83;;
22929;SDS011;11630;42.660;23.292;2022-07-10T04:57:06;9.67;;;8.20;;
22929;SDS011;11630;42.660;23.292;2022-07-10T04:59:37;11.67;;;9.03;;
22929;SDS011;11630;42.660;23.292;2022-07-10T05:02:09;7.80;;;7.10;;
22929;SDS011;11630;42.660;23.292;2022-07-10T05:04:40;12.70;;;8.80;;
22929;SDS011;11630;42.660;23.292;2022-07-10T05:07:10;9.83;;;8.17;;
22929;SDS011;11630;42.660;23.292;2022-07-10T05:09:41;8.80;;;7.90;;
22929;SDS011;11630;42.660;23.292;2022-07-10T05:12:11;9.03;;;8.13;;
22929;SDS011;11630;42.660;23.292;2022-07-10T05:14:42;11.53;;;7.13;;
22929;SDS011;11630;42.660;23.292;2022-07-10T05:17:13;9.97;;;7.10;;
22929;SDS011;11630;42.660;23.292;2022-07-10T05:19:44;11.90;;;7.57;;
22929;SDS011;11630;42.660;23.292;2022-07-10T05:22:15;12.30;;;7.70;;
22929;SDS011;11630;42.660;23.292;2022-07-10T05:24:46;11.47;;;8.57;;
22929;SDS011;11630;42.660;23.292;2022-07-10T05:27:16;8.33;;;7.27;;
22929;SDS011;11630;42.660;23.292;2022-07-10T05:29:47;7.80;;;7.07;;
22929;SDS011;11630;42.660;23.292;2022-07-10T05:32:16;7.77;;;7.07;;
22929;SDS011;11630;42.660;23.292;2022-07-10T05:34:47;6.80;;;6.27;;
22929;SDS011;11630;42.660;23.292;2022-07-10T05:37:18;7.77;;;7.07;;
22929;SDS011;11630;42.660;23.292;2022-07-10T05:39:49;7.43;;;6.67;;
22929;SDS011;11630;42.660;23.292;2022-07-10T05:42:20;7.70;;;6.90;;
22929;SDS011;11630;42.660;23.292;2022-07-10T05:44:51;7.47;;;6.70;;
22929;SDS011;11630;42.660;23.292;2022-07-10T05:47:22;8.20;;;7.40;;
22929;SDS011;11630;42.660;23.292;2022-07-10T05:49:53;7.70;;;6.90;;
22929;SDS011;11630;42.660;23.292;2022-07-10T05:52:23;7.27;;;6.50;;
22929;SDS011;11630;42.660;23.292;2022-07-10T05:54:59;9.60;;;6.40;;
22929;SDS011;11630;42.660;23.292;2022-07-10T05:57:26;8.63;;;5.63;;
22929;SDS011;11630;42.660;23.292;2022-07-10T06:00:03;7.40;;;6.80;;
22929;SDS011;11630;42.660;23.292;2022-07-10T06:02:33;12.47;;;6.47;;
22929;SDS011;11630;42.660;23.292;2022-07-10T06:05:03;7.10;;;6.40;;
22929;SDS011;11630;42.660;23.292;2022-07-10T06:07:34;7.17;;;6.40;;
22929;SDS011;11630;42.660;23.292;2022-07-10T06:10:06;7.00;;;5.90;;
22929;SDS011;11630;42.660;23.292;2022-07-10T06:12:39;6.03;;;5.43;;
22929;SDS011;11630;42.660;23.292;2022-07-10T06:15:10;8.67;;;6.30;;
22929;SDS011;11630;42.660;23.292;2022-07-10T06:17:41;5.93;;;5.33;;
22929;SDS011;11630;42.660;23.292;2022-07-10T06:20:12;5.67;;;4.80;;
22929;SDS011;11630;42.660;23.292;2022-07-10T06:22:43;6.63;;;5.70;;
22929;SDS011;11630;42.660;23.292;2022-07-10T06:25:14;7.83;;;7.10;;
22929;SDS011;11630;42.660;23.292;2022-07-10T06:27:46;6.03;;;5.43;;
22929;SDS011;11630;42.660;23.292;2022-07-10T06:30:17;6.00;;;5.40;;
22929;SDS011;11630;42.660;23.292;2022-07-10T06:32:48;7.87;;;4.60;;
22929;SDS011;11630;42.660;23.292;2022-07-10T06:35:19;6.00;;;5.43;;
22929;SDS011;11630;42.660;23.292;2022-07-10T06:37:49;9.70;;;5.33;;
22929;SDS011;11630;42.660;23.292;2022-07-10T06:40:20;5.83;;;5.23;;
22929;SDS011;11630;42.660;23.292;2022-07-10T06:42:50;5.23;;;4.73;;
22929;SDS011;11630;42.660;23.292;2022-07-10T06:45:21;5.07;;;4.67;;
22929;SDS011;11630;42.660;23.292;2022-07-10T06:47:52;5.57;;;5.03;;
22929;SDS011;11630;42.660;23.292;2022-07-10T06:50:24;6.03;;;5.43;;
22929;SDS011;11630;42.660;23.292;2022-07-10T06:52:56;7.10;;;4.60;;
22929;SDS011;11630;42.660;23.292;2022-07-10T06:55:28;7.00;;;4.40;;
22929;SDS011;11630;42.660;23.292;2022-07-10T06:57:58;5.60;;;5.10;;
22929;SDS011;11630;42.660;23.292;2022-07-10T07:00:28;8.80;;;7.10;;
22929;SDS011;11630;42.660;23.292;2022-07-10T07:02:59;11.83;;;9.07;;
22929;SDS011;11630;42.660;23.292;2022-07-10T07:05:30;12.37;;;4.83;;
22929;SDS011;11630;42.660;23.292;2022-07-10T07:08:01;4.60;;;4.20;;
22929;SDS011;11630;42.660;23.292;2022-07-10T07:10:32;5.37;;;4.37;;
22929;SDS011;11630;42.660;23.292;2022-07-10T07:13:03;6.23;;;4.43;;
22929;SDS011;11630;42.660;23.292;2022-07-10T07:15:34;4.73;;;3.90;;
22929;SDS011;11630;42.660;23.292;2022-07-10T07:18:04;8.00;;;5.10;;
22929;SDS011;11630;42.660;23.292;2022-07-10T07:20:36;4.67;;;4.27;;
22929;SDS011;11630;42.660;23.292;2022-07-10T07:23:22;6.77;;;4.90;;
22929;SDS011;11630;42.660;23.292;2022-07-10T07:25:53;6.53;;;5.13;;
22929;SDS011;11630;42.660;23.292;2022-07-10T07:28:25;4.90;;;4.40;;
22929;SDS011;11630;42.660;23.292;2022-07-10T07:30:56;4.93;;;4.53;;
22929;SDS011;11630;42.660;23.292;2022-07-10T07:33:27;5.90;;;3.90;;
22929;SDS011;11630;42.660;23.292;2022-07-10T07:35:58;9.03;;;5.10;;
22929;SDS011;11630;42.660;23.292;2022-07-10T07:38:30;6.10;;;4.20;;
22929;SDS011;11630;42.660;23.292;2022-07-10T07:41:01;6.40;;;3.93;;
22929;SDS011;11630;42.660;23.292;2022-07-10T07:43:31;7.70;;;4.07;;
22929;SDS011;11630;42.660;23.292;2022-07-10T07:46:02;3.77;;;3.47;;
22929;SDS011;11630;42.660;23.292;2022-07-10T07:48:32;7.80;;;3.80;;
22929;SDS011;11630;42.660;23.292;2022-07-10T07:51:04;6.70;;;3.80;;
22929;SDS011;11630;42.660;23.292;2022-07-10T07:53:34;4.00;;;3.70;;
22929;SDS011;11630;42.660;23.292;2022-07-10T07:56:06;9.37;;;3.90;;
22929;SDS011;11630;42.660;23.292;2022-07-10T07:58:37;4.40;;;4.00;;
22929;SDS011;11630;42.660;23.292;2022-07-10T08:01:08;3.47;;;3.27;;
22929;SDS011;11630;42.660;23.292;2022-07-10T08:03:39;4.43;;;3.70;;
22929;SDS011;11630;42.660;23.292;2022-07-10T08:06:10;4.70;;;4.23;;
22929;SDS011;11630;42.660;23.292;2022-07-10T08:08:41;7.97;;;4.53;;
22929;SDS011;11630;42.660;23.292;2022-07-10T08:11:12;5.87;;;4.27;;
22929;SDS011;11630;42.660;23.292;2022-07-10T08:13:42;3.70;;;3.00;;
22929;SDS011;11630;42.660;23.292;2022-07-10T08:16:13;9.90;;;4.83;;
22929;SDS011;11630;42.660;23.292;2022-07-10T08:18:44;6.37;;;3.80;;
22929;SDS011;11630;42.660;23.292;2022-07-10T08:21:17;4.97;;;4.27;;
22929;SDS011;11630;42.660;23.292;2022-07-10T08:23:48;4.60;;;3.50;;
22929;SDS011;11630;42.660;23.292;2022-07-10T08:26:19;9.27;;;4.67;;
22929;SDS011;11630;42.660;23.292;2022-07-10T08:28:50;4.80;;;3.53;;
22929;SDS011;11630;42.660;23.292;2022-07-10T08:31:21;3.37;;;2.77;;
22929;SDS011;11630;42.660;23.292;2022-07-10T08:33:52;3.23;;;3.03;;
22929;SDS011;11630;42.660;23.292;2022-07-10T08:36:23;4.60;;;3.67;;
22929;SDS011;11630;42.660;23.292;2022-07-10T08:38:54;3.30;;;2.97;;
22929;SDS011;11630;42.660;23.292;2022-07-10T08:41:25;5.67;;;3.27;;
22929;SDS011;11630;42.660;23.292;2022-07-10T08:43:57;6.60;;;3.37;;
22929;SDS011;11630;42.660;23.292;2022-07-10T08:46:29;6.27;;;4.10;;
22929;SDS011;11630;42.660;23.292;2022-07-10T08:48:59;4.90;;;3.70;;
22929;SDS011;11630;42.660;23.292;2022-07-10T08:51:41;5.93;;;3.43;;
22929;SDS011;11630;42.660;23.292;2022-07-10T08:54:11;3.60;;;3.30;;
22929;SDS011;11630;42.660;23.292;2022-07-10T08:56:45;5.00;;;3.47;;
22929;SDS011;11630;42.660;23.292;2022-07-10T08:59:16;5.47;;;3.30;;
22929;SDS011;11630;42.660;23.292;2022-07-10T09:01:48;4.10;;;3.07;;
22929;SDS011;11630;42.660;23.292;2022-07-10T09:04:18;6.23;;;3.23;;
22929;SDS011;11630;42.660;23.292;2022-07-10T09:06:54;5.27;;;4.77;;
22929;SDS011;11630;42.660;23.292;2022-07-10T09:09:25;5.60;;;3.83;;
22929;SDS011;11630;42.660;23.292;2022-07-10T09:11:57;3.20;;;2.90;;
22929;SDS011;11630;42.660;23.292;2022-07-10T09:14:27;3.47;;;3.17;;
22929;SDS011;11630;42.660;23.292;2022-07-10T09:16:58;7.23;;;3.50;;
22929;SDS011;11630;42.660;23.292;2022-07-10T09:19:29;5.30;;;3.50;;
22929;SDS011;11630;42.660;23.292;2022-07-10T09:22:07;3.57;;;3.10;;
22929;SDS011;11630;42.660;23.292;2022-07-10T09:24:43;3.93;;;3.53;;
22929;SDS011;11630;42.660;23.292;2022-07-10T09:27:14;5.00;;;2.50;;
22929;SDS011;11630;42.660;23.292;2022-07-10T09:29:49;5.17;;;2.93;;
22929;SDS011;11630;42.660;23.292;2022-07-10T09:32:23;3.40;;;3.07;;
22929;SDS011;11630;42.660;23.292;2022-07-10T09:34:54;4.60;;;2.83;;
22929;SDS011;11630;42.660;23.292;2022-07-10T09:37:33;7.77;;;3.37;;
22929;SDS011;11630;42.660;23.292;2022-07-10T09:40:05;5.87;;;2.83;;
22929;SDS011;11630;42.660;23.292;2022-07-10T09:42:38;6.80;;;3.13;;
22929;SDS011;11630;42.660;23.292;2022-07-10T09:47:42;3.87;;;3.57;;
22929;SDS011;11630;42.660;23.292;2022-07-10T09:53:08;6.60;;;3.17;;
22929;SDS011;11630;42.660;23.292;2022-07-10T09:55:39;5.33;;;2.53;;
22929;SDS011;11630;42.660;23.292;2022-07-10T09:58:11;4.43;;;2.90;;
22929;SDS011;11630;42.660;23.292;2022-07-10T10:00:43;4.07;;;2.53;;
22929;SDS011;11630;42.660;23.292;2022-07-10T10:03:14;4.87;;;2.60;;
22929;SDS011;11630;42.660;23.292;2022-07-10T10:08:27;2.70;;;2.50;;
22929;SDS011;11630;42.660;23.292;2022-07-10T10:10:56;6.50;;;2.67;;
22929;SDS011;11630;42.660;23.292;2022-07-10T10:13:28;4.23;;;2.70;;
22929;SDS011;11630;42.660;23.292;2022-07-10T10:15:59;2.80;;;2.53;;
22929;SDS011;11630;42.660;23.292;2022-07-10T10:18:31;3.50;;;2.17;;
22929;SDS011;11630;42.660;23.292;2022-07-10T10:21:02;5.83;;;2.87;;
22929;SDS011;11630;42.660;23.292;2022-07-10T10:23:33;3.80;;;2.50;;
22929;SDS011;11630;42.660;23.292;2022-07-10T10:26:04;3.07;;;2.50;;
22929;SDS011;11630;42.660;23.292;2022-07-10T10:28:35;4.63;;;2.40;;
22929;SDS011;11630;42.660;23.292;2022-07-10T10:31:06;3.07;;;2.50;;
22929;SDS011;11630;42.660;23.292;2022-07-10T10:33:42;4.97;;;2.37;;
22929;SDS011;11630;42.660;23.292;2022-07-10T10:36:43;4.67;;;2.83;;
22929;SDS011;11630;42.660;23.292;2022-07-10T10:39:09;2.30;;;2.07;;
22929;SDS011;11630;42.660;23.292;2022-07-10T10:41:50;15.50;;;3.17;;
22929;SDS011;11630;42.660;23.292;2022-07-10T10:44:22;3.50;;;2.37;;
22929;SDS011;11630;42.660;23.292;2022-07-10T10:46:59;9.00;;;3.60;;
22929;SDS011;11630;42.660;23.292;2022-07-10T10:49:48;4.97;;;2.93;;
22929;SDS011;11630;42.660;23.292;2022-07-10T10:52:23;5.13;;;3.70;;
22929;SDS011;11630;42.660;23.292;2022-07-10T10:57:36;4.13;;;2.97;;
22929;SDS011;11630;42.660;23.292;2022-07-10T11:00:08;2.93;;;2.73;;
22929;SDS011;11630;42.660;23.292;2022-07-10T11:02:40;6.77;;;2.63;;
22929;SDS011;11630;42.660;23.292;2022-07-10T11:07:52;2.90;;;2.67;;
22929;SDS011;11630;42.660;23.292;2022-07-10T11:13:21;4.90;;;2.63;;
22929;SDS011;11630;42.660;23.292;2022-07-10T11:15:48;3.27;;;2.30;;
22929;SDS011;11630;42.660;23.292;2022-07-10T11:18:19;2.63;;;2.20;;
22929;SDS011;11630;42.660;23.292;2022-07-10T11:20:50;3.93;;;2.30;;
22929;SDS011;11630;42.660;23.292;2022-07-10T11:23:29;2.70;;;2.50;;
22929;SDS011;11630;42.660;23.292;2022-07-10T11:26:23;3.00;;;2.30;;
22929;SDS011;11630;42.660;23.292;2022-07-10T11:28:58;2.93;;;2.63;;
22929;SDS011;11630;42.660;23.292;2022-07-10T11:31:25;7.50;;;2.83;;
22929;SDS011;11630;42.660;23.292;2022-07-10T11:33:56;2.43;;;2.20;;
22929;SDS011;11630;42.660;23.292;2022-07-10T11:36:27;3.43;;;2.10;;
22929;SDS011;11630;42.660;23.292;2022-07-10T11:39:01;2.33;;;2.13;;
22929;SDS011;11630;42.660;23.292;2022-07-10T11:41:32;4.23;;;2.50;;
22929;SDS011;11630;42.660;23.292;2022-07-10T11:44:04;4.13;;;2.90;;
22929;SDS011;11630;42.660;23.292;2022-07-10T11:46:35;5.83;;;2.43;;
22929;SDS011;11630;42.660;23.292;2022-07-10T11:49:05;3.00;;;2.27;;
22929;SDS011;11630;42.660;23.292;2022-07-10T11:51:40;3.57;;;2.73;;
22929;SDS011;11630;42.660;23.292;2022-07-10T11:54:17;4.37;;;3.97;;
22929;SDS011;11630;42.660;23.292;2022-07-10T11:56:48;6.80;;;2.70;;
22929;SDS011;11630;42.660;23.292;2022-07-10T11:59:25;3.63;;;3.33;;
22929;SDS011;11630;42.660;23.292;2022-07-10T12:01:56;2.83;;;2.17;;
22929;SDS011;11630;42.660;23.292;2022-07-10T12:04:28;3.80;;;2.23;;
22929;SDS011;11630;42.660;23.292;2022-07-10T12:07:00;3.47;;;2.47;;
22929;SDS011;11630;42.660;23.292;2022-07-10T12:09:31;3.00;;;2.33;;
22929;SDS011;11630;42.660;23.292;2022-07-10T12:12:03;4.50;;;2.50;;
22929;SDS011;11630;42.660;23.292;2022-07-10T12:14:36;2.80;;;1.90;;
22929;SDS011;11630;42.660;23.292;2022-07-10T12:17:10;3.00;;;2.00;;
22929;SDS011;11630;42.660;23.292;2022-07-10T12:19:41;3.77;;;2.40;;
22929;SDS011;11630;42.660;23.292;2022-07-10T12:22:12;6.73;;;2.17;;
22929;SDS011;11630;42.660;23.292;2022-07-10T12:24:43;2.00;;;1.83;;
22929;SDS011;11630;42.660;23.292;2022-07-10T12:27:38;2.63;;;2.03;;
22929;SDS011;11630;42.660;23.292;2022-07-10T12:30:00;2.47;;;1.80;;
22929;SDS011;11630;42.660;23.292;2022-07-10T12:32:30;2.20;;;1.70;;
22929;SDS011;11630;42.660;23.292;2022-07-10T12:35:01;3.63;;;2.50;;
22929;SDS011;11630;42.660;23.292;2022-07-10T12:37:32;7.60;;;2.40;;
22929;SDS011;11630;42.660;23.292;2022-07-10T12:40:02;6.03;;;2.93;;
22929;SDS011;11630;42.660;23.292;2022-07-10T12:42:34;5.20;;;2.70;;
22929;SDS011;11630;42.660;23.292;2022-07-10T12:45:14;2.27;;;1.90;;
22929;SDS011;11630;42.660;23.292;2022-07-10T12:47:45;5.10;;;1.70;;
22929;SDS011;11630;42.660;23.292;2022-07-10T12:50:17;2.33;;;1.90;;
22929;SDS011;11630;42.660;23.292;2022-07-10T12:52:49;2.47;;;1.70;;
22929;SDS011;11630;42.660;23.292;2022-07-10T12:55:21;2.00;;;1.53;;
22929;SDS011;11630;42.660;23.292;2022-07-10T13:00:29;1.67;;;1.57;;
22929;SDS011;11630;42.660;23.292;2022-07-10T13:03:06;2.10;;;1.83;;
22929;SDS011;11630;42.660;23.292;2022-07-10T13:05:39;5.00;;;1.50;;
22929;SDS011;11630;42.660;23.292;2022-07-10T13:08:11;7.33;;;2.10;;
22929;SDS011;11630;42.660;23.292;2022-07-10T13:10:52;2.53;;;1.60;;
22929;SDS011;11630;42.660;23.292;2022-07-10T13:13:26;2.90;;;1.60;;
22929;SDS011;11630;42.660;23.292;2022-07-10T13:15:57;6.10;;;1.70;;
22929;SDS011;11630;42.660;23.292;2022-07-10T13:18:28;4.00;;;1.87;;
22929;SDS011;11630;42.660;23.292;2022-07-10T13:20:58;2.90;;;1.53;;
22929;SDS011;11630;42.660;23.292;2022-07-10T13:23:29;4.73;;;1.60;;
22929;SDS011;11630;42.660;23.292;2022-07-10T13:26:00;2.20;;;1.60;;
22929;SDS011;11630;42.660;23.292;2022-07-10T13:28:33;2.80;;;1.53;;
22929;SDS011;11630;42.660;23.292;2022-07-10T13:31:03;3.40;;;1.37;;
22929;SDS011;11630;42.660;23.292;2022-07-10T13:33:33;2.00;;;1.60;;
22929;SDS011;11630;42.660;23.292;2022-07-10T13:36:05;7.23;;;1.50;;
22929;SDS011;11630;42.660;23.292;2022-07-10T13:38:35;7.73;;;1.37;;
22929;SDS011;11630;42.660;23.292;2022-07-10T13:41:06;3.80;;;1.57;;
22929;SDS011;11630;42.660;23.292;2022-07-10T13:43:37;1.50;;;1.40;;
22929;SDS011;11630;42.660;23.292;2022-07-10T13:46:11;3.43;;;0.90;;
22929;SDS011;11630;42.660;23.292;2022-07-10T13:48:40;1.70;;;1.30;;
22929;SDS011;11630;42.660;23.292;2022-07-10T13:51:11;3.60;;;1.40;;
22929;SDS011;11630;42.660;23.292;2022-07-10T13:53:41;3.20;;;1.57;;
22929;SDS011;11630;42.660;23.292;2022-07-10T13:56:12;3.93;;;1.53;;
22929;SDS011;11630;42.660;23.292;2022-07-10T13:58:43;1.50;;;1.40;;
22929;SDS011;11630;42.660;23.292;2022-07-10T14:01:15;1.50;;;1.40;;
22929;SDS011;11630;42.660;23.292;2022-07-10T14:03:45;4.20;;;1.37;;
22929;SDS011;11630;42.660;23.292;2022-07-10T14:06:16;1.73;;;1.30;;
22929;SDS011;11630;42.660;23.292;2022-07-10T14:08:47;1.40;;;1.30;;
22929;SDS011;11630;42.660;23.292;2022-07-10T14:11:18;2.63;;;1.70;;
22929;SDS011;11630;42.660;23.292;2022-07-10T14:13:47;2.47;;;1.30;;
22929;SDS011;11630;42.660;23.292;2022-07-10T14:16:18;2.27;;;1.60;;
22929;SDS011;11630;42.660;23.292;2022-07-10T14:18:49;3.43;;;1.77;;
22929;SDS011;11630;42.660;23.292;2022-07-10T14:21:21;1.60;;;1.10;;
22929;SDS011;11630;42.660;23.292;2022-07-10T14:23:52;2.40;;;1.27;;
22929;SDS011;11630;42.660;23.292;2022-07-10T14:26:22;2.33;;;1.30;;
22929;SDS011;11630;42.660;23.292;2022-07-10T14:28:53;5.43;;;1.30;;
22929;SDS011;11630;42.660;23.292;2022-07-10T14:31:24;6.03;;;1.90;;
22929;SDS011;11630;42.660;23.292;2022-07-10T14:33:55;2.43;;;1.70;;
22929;SDS011;11630;42.660;23.292;2022-07-10T14:36:26;3.03;;;1.33;;
22929;SDS011;11630;42.660;23.292;2022-07-10T14:38:57;1.97;;;1.50;;
22929;SDS011;11630;42.660;23.292;2022-07-10T14:41:32;4.00;;;1.40;;
22929;SDS011;11630;42.660;23.292;2022-07-10T14:44:03;1.50;;;1.40;;
22929;SDS011;11630;42.660;23.292;2022-07-10T14:46:34;2.73;;;2.03;;
22929;SDS011;11630;42.660;23.292;2022-07-10T14:49:04;4.33;;;1.70;;
22929;SDS011;11630;42.660;23.292;2022-07-10T14:51:35;1.57;;;1.40;;
22929;SDS011;11630;42.660;23.292;2022-07-10T14:54:06;2.17;;;1.40;;
22929;SDS011;11630;42.660;23.292;2022-07-10T14:56:37;4.53;;;1.53;;
22929;SDS011;11630;42.660;23.292;2022-07-10T14:59:08;1.93;;;1.60;;
22929;SDS011;11630;42.660;23.292;2022-07-10T15:01:39;3.37;;;1.67;;
22929;SDS011;11630;42.660;23.292;2022-07-10T15:04:10;2.13;;;1.60;;
22929;SDS011;11630;42.660;23.292;2022-07-10T15:06:40;2.30;;;1.53;;
22929;SDS011;11630;42.660;23.292;2022-07-10T15:09:10;1.87;;;1.60;;
22929;SDS011;11630;42.660;23.292;2022-07-10T15:11:41;2.67;;;1.70;;